createdAt,value
2022-09-23T00:01:14.368Z,13.41
2022-09-23T00:03:42.316Z,13.43
2022-09-23T00:06:19.668Z,13.42
2022-09-23T00:08:46.677Z,13.38
2022-09-23T00:11:15.257Z,13.36
2022-09-23T00:13:43.118Z,13.39
2022-09-23T00:16:12.752Z,13.33
2022-09-23T00:18:39.634Z,13.34
2022-09-23T00:21:07.356Z,13.33
2022-09-23T00:23:34.301Z,13.33
2022-09-23T00:26:01.869Z,13.30
2022-09-23T00:28:29.105Z,13.28
2022-09-23T00:30:56.284Z,13.26
2022-09-23T00:33:23.193Z,13.25
2022-09-23T00:35:49.962Z,13.25
2022-09-23T00:38:17.238Z,13.21
2022-09-23T00:40:44.835Z,13.22
2022-09-23T00:43:13.022Z,13.15
2022-09-23T00:45:40.937Z,13.14
2022-09-23T00:48:08.893Z,13.14
2022-09-23T00:50:40.065Z,13.14
2022-09-23T00:53:08.076Z,13.16
2022-09-23T00:55:39.226Z,13.12
2022-09-23T00:58:08.016Z,13.11
2022-09-23T01:00:35.634Z,13.10
2022-09-23T01:03:02.582Z,13.07
2022-09-23T01:05:29.371Z,13.05
2022-09-23T01:07:57.532Z,13.03
2022-09-23T01:10:24.374Z,13.03
2022-09-23T01:13:16.155Z,13.04
2022-09-23T01:16:08.375Z,13.01
2022-09-23T01:18:45.518Z,12.99
2022-09-23T01:21:21.406Z,12.96
2022-09-23T01:24:02.448Z,12.97
2022-09-23T01:26:51.333Z,12.95
2022-09-23T01:29:55.067Z,12.92
2022-09-23T01:33:04.795Z,12.90
2022-09-23T01:36:05.261Z,12.89
2022-09-23T01:38:39.741Z,12.89
2022-09-23T01:41:13.214Z,12.88
2022-09-23T01:43:47.298Z,12.85
2022-09-23T01:46:19.820Z,12.83
2022-09-23T01:48:51.424Z,12.84
2022-09-23T01:51:23.922Z,12.81
2022-09-23T01:54:18.952Z,12.81
2022-09-23T01:56:56.335Z,12.83
2022-09-23T01:59:35.849Z,12.78
2022-09-23T02:02:15.364Z,12.76
2022-09-23T02:04:48.080Z,12.75
2022-09-23T02:07:20.364Z,12.75
2022-09-23T02:09:52.658Z,12.74
2022-09-23T02:12:20.368Z,12.74
2022-09-23T02:14:56.644Z,12.69
2022-09-23T02:17:31.646Z,12.71
2022-09-23T02:20:01.683Z,12.69
2022-09-23T02:22:35.360Z,12.71
2022-09-23T02:25:03.273Z,12.66
2022-09-23T02:27:34.864Z,12.66
2022-09-23T02:30:21.862Z,12.66
2022-09-23T02:32:53.334Z,12.62
2022-09-23T02:35:33.357Z,12.61
2022-09-23T02:38:18.689Z,12.59
2022-09-23T02:40:46.037Z,12.58
2022-09-23T02:43:24.425Z,12.57
2022-09-23T02:45:51.264Z,12.55
2022-09-23T02:48:30.680Z,12.54
2022-09-23T02:50:57.933Z,12.50
2022-09-23T02:53:25.053Z,12.50
2022-09-23T02:55:51.844Z,12.49
2022-09-23T02:58:18.632Z,12.48
2022-09-23T03:00:50.180Z,12.44
2022-09-23T03:03:46.972Z,12.44
2022-09-23T03:06:30.224Z,12.45
2022-09-23T03:09:13.015Z,12.41
2022-09-23T03:11:40.583Z,12.39
2022-09-23T03:14:19.855Z,12.40
2022-09-23T03:16:55.936Z,12.36
2022-09-23T03:19:56.097Z,12.37
2022-09-23T03:22:28.041Z,12.36
2022-09-23T03:24:54.817Z,12.35
2022-09-23T03:27:24.132Z,12.32
2022-09-23T03:29:51.776Z,12.30
2022-09-23T03:32:20.200Z,12.29
2022-09-23T03:34:49.083Z,12.31
2022-09-23T03:37:18.049Z,12.29
2022-09-23T03:39:49.930Z,12.28
2022-09-23T03:42:21.189Z,12.25
2022-09-23T03:44:48.286Z,12.23
2022-09-23T03:47:15.782Z,12.23
2022-09-23T03:49:43.833Z,12.22
2022-09-23T03:52:11.167Z,12.23
2022-09-23T03:54:37.969Z,12.19
2022-09-23T03:57:05.140Z,12.19
2022-09-23T03:59:31.964Z,12.18
2022-09-23T04:01:59.629Z,12.17
2022-09-23T04:04:27.673Z,12.17
2022-09-23T04:06:57.837Z,12.14
2022-09-23T04:09:24.653Z,12.11
2022-09-23T04:11:52.086Z,12.14
2022-09-23T04:14:19.465Z,12.14
2022-09-23T04:16:46.963Z,12.12
2022-09-23T04:19:14.246Z,12.12
2022-09-23T04:21:41.316Z,12.10
2022-09-23T04:24:08.270Z,12.11
2022-09-23T04:26:35.493Z,12.10
2022-09-23T04:29:02.547Z,12.08
2022-09-23T04:31:29.437Z,12.09
2022-09-23T04:33:56.734Z,12.07
2022-09-23T04:36:23.533Z,12.07
2022-09-23T04:38:50.809Z,12.08
2022-09-23T04:41:18.213Z,12.05
2022-09-23T04:43:45.264Z,12.05
2022-09-23T04:46:13.478Z,12.03
2022-09-23T04:48:41.644Z,12.04
2022-09-23T04:51:19.264Z,12.02
2022-09-23T04:53:47.324Z,12.03
2022-09-23T04:56:18.653Z,12.04
2022-09-23T04:58:46.102Z,12.02
2022-09-23T05:01:17.480Z,12.01
2022-09-23T05:03:44.652Z,12.01
2022-09-23T05:06:13.805Z,11.98
2022-09-23T05:08:41.664Z,11.99
2022-09-23T05:11:09.018Z,12.00
2022-09-23T05:13:36.216Z,12.01
2022-09-23T05:16:05.061Z,11.99
2022-09-23T05:18:32.647Z,12.00
2022-09-23T05:21:00.238Z,11.98
2022-09-23T05:23:27.563Z,11.99
2022-09-23T05:26:02.850Z,12.00
2022-09-23T05:28:32.394Z,11.98
2022-09-23T05:31:20.575Z,11.97
2022-09-23T05:33:54.179Z,11.98
2022-09-23T05:36:21.639Z,11.98
2022-09-23T05:38:51.582Z,11.99
2022-09-23T05:41:19.656Z,11.99
2022-09-23T05:43:47.427Z,11.96
2022-09-23T05:46:19.587Z,11.96
2022-09-23T05:48:47.295Z,11.98
2022-09-23T05:51:19.003Z,11.99
2022-09-23T05:53:46.550Z,12.00
2022-09-23T05:56:17.716Z,12.00
2022-09-23T05:58:44.681Z,11.95
2022-09-23T06:01:13.303Z,11.95
2022-09-23T06:03:40.319Z,11.97
2022-09-23T06:06:07.767Z,11.96
2022-09-23T06:08:34.932Z,11.98
2022-09-23T06:11:07.754Z,12.00
2022-09-23T06:13:38.258Z,12.03
2022-09-23T06:16:13.006Z,12.07
2022-09-23T06:18:40.830Z,12.10
2022-09-23T06:21:09.311Z,12.15
2022-09-23T06:23:39.480Z,12.17
2022-09-23T06:26:09.708Z,12.20
2022-09-23T06:28:37.878Z,12.25
2022-09-23T06:31:13.394Z,12.25
2022-09-23T06:33:45.043Z,12.29
2022-09-23T06:36:13.116Z,12.32
2022-09-23T06:38:44.692Z,12.34
2022-09-23T06:41:12.108Z,12.40
2022-09-23T06:43:38.987Z,12.42
2022-09-23T06:46:07.375Z,12.42
2022-09-23T06:48:35.347Z,12.49
2022-09-23T06:51:04.178Z,12.54
2022-09-23T06:53:34.121Z,12.56
2022-09-23T06:56:02.643Z,12.60
2022-09-23T06:58:30.140Z,12.65
2022-09-23T07:01:08.519Z,12.71
2022-09-23T07:03:35.726Z,12.75
2022-09-23T07:06:02.952Z,12.83
2022-09-23T07:08:30.146Z,12.89
2022-09-23T07:10:58.170Z,12.95
2022-09-23T07:13:25.294Z,13.01
2022-09-23T07:15:58.559Z,13.05
2022-09-23T07:18:25.931Z,13.11
2022-09-23T07:20:53.268Z,13.18
2022-09-23T07:23:20.257Z,13.24
2022-09-23T07:25:49.480Z,13.30
2022-09-23T07:28:16.539Z,13.37
2022-09-23T07:30:55.005Z,13.41
2022-09-23T07:33:31.822Z,13.51
2022-09-23T07:35:59.627Z,13.56
2022-09-23T07:38:30.230Z,13.65
2022-09-23T07:41:08.109Z,13.70
2022-09-23T07:43:35.435Z,13.77
2022-09-23T07:46:04.161Z,13.86
2022-09-23T07:48:34.336Z,13.92
2022-09-23T07:51:19.065Z,14.03
2022-09-23T07:53:52.095Z,14.13
2022-09-23T07:56:19.967Z,14.22
2022-09-23T07:59:00.019Z,14.28
2022-09-23T08:01:33.152Z,14.36
2022-09-23T08:04:21.673Z,14.45
2022-09-23T08:06:50.396Z,14.53
2022-09-23T08:09:18.845Z,14.60
2022-09-23T08:11:45.780Z,14.70
2022-09-23T08:14:13.653Z,14.79
2022-09-23T08:16:41.268Z,14.90
2022-09-23T08:19:08.343Z,14.98
2022-09-23T08:21:35.492Z,15.08
2022-09-23T08:24:02.599Z,15.14
2022-09-23T08:26:29.398Z,15.22
2022-09-23T08:28:56.574Z,15.33
2022-09-23T08:31:23.578Z,15.43
2022-09-23T08:33:57.091Z,15.50
2022-09-23T08:36:24.747Z,15.59
2022-09-23T08:38:51.637Z,15.68
2022-09-23T08:41:40.210Z,15.77
2022-09-23T08:44:13.798Z,15.88
2022-09-23T08:46:44.906Z,15.97
2022-09-23T08:49:12.398Z,16.07
2022-09-23T08:51:46.256Z,16.14
2022-09-23T08:54:13.531Z,16.22
2022-09-23T08:56:40.349Z,16.33
2022-09-23T08:59:38.354Z,16.42
2022-09-23T09:02:20.232Z,16.52
2022-09-23T09:04:54.577Z,16.61
2022-09-23T09:07:36.523Z,16.71
2022-09-23T09:10:03.855Z,16.83
2022-09-23T09:12:45.297Z,16.88
2022-09-23T09:15:27.380Z,16.98
2022-09-23T09:18:14.051Z,17.07
2022-09-23T09:20:57.173Z,17.20
2022-09-23T09:23:30.113Z,17.30
2022-09-23T09:26:01.648Z,17.39
2022-09-23T09:28:36.368Z,17.49
2022-09-23T09:31:14.972Z,17.58
2022-09-23T09:33:47.827Z,17.65
2022-09-23T09:36:36.127Z,17.75
2022-09-23T09:39:03.695Z,17.82
2022-09-23T09:41:31.609Z,17.87
2022-09-23T09:44:00.700Z,17.96
2022-09-23T09:46:51.334Z,18.06
2022-09-23T09:49:40.889Z,18.20
2022-09-23T09:52:12.209Z,18.25
2022-09-23T09:54:39.637Z,18.34
2022-09-23T09:57:12.412Z,18.41
2022-09-23T09:59:44.126Z,18.50
2022-09-23T10:02:25.581Z,18.55
2022-09-23T10:04:58.094Z,18.61
2022-09-23T10:07:27.195Z,18.63
2022-09-23T10:09:58.345Z,18.70
2022-09-23T10:12:28.688Z,18.75
2022-09-23T10:14:56.684Z,18.86
2022-09-23T10:17:26.460Z,18.90
2022-09-23T10:20:06.918Z,18.98
2022-09-23T10:22:39.787Z,19.05
2022-09-23T10:25:16.425Z,19.09
2022-09-23T10:27:45.769Z,19.15
2022-09-23T10:30:22.620Z,19.14
2022-09-23T10:32:50.847Z,19.19
2022-09-23T10:35:21.037Z,19.23
2022-09-23T10:37:52.648Z,19.31
2022-09-23T10:40:51.076Z,19.35
2022-09-23T10:43:39.574Z,19.40
2022-09-23T10:46:27.523Z,19.43
2022-09-23T10:49:09.163Z,19.42
2022-09-23T10:51:57.941Z,19.51
2022-09-23T10:54:52.183Z,19.55
2022-09-23T10:57:42.480Z,19.61
2022-09-23T11:00:23.569Z,19.65
2022-09-23T11:03:02.866Z,19.73
2022-09-23T11:05:55.463Z,19.73
2022-09-23T11:09:00.073Z,19.81
2022-09-23T11:11:52.460Z,19.92
2022-09-23T11:14:40.772Z,19.95
2022-09-23T11:17:45.279Z,20.04
2022-09-23T11:20:46.616Z,20.17
2022-09-23T11:23:13.451Z,20.22
2022-09-23T11:25:50.574Z,20.28
2022-09-23T11:28:39.948Z,20.30
2022-09-23T11:31:40.545Z,20.40
2022-09-23T11:34:43.702Z,20.49
2022-09-23T11:37:15.469Z,20.53
2022-09-23T11:39:59.871Z,20.56
2022-09-23T11:42:32.901Z,20.62
2022-09-23T11:45:02.324Z,20.69
2022-09-23T11:47:55.016Z,20.70
2022-09-23T11:50:44.743Z,20.75
2022-09-23T11:53:36.380Z,20.81
2022-09-23T11:56:30.092Z,20.83
2022-09-23T11:59:06.662Z,20.87
2022-09-23T12:01:38.535Z,20.88
2022-09-23T12:04:29.187Z,20.88
2022-09-23T12:07:08.673Z,20.90
2022-09-23T12:09:58.556Z,20.92
2022-09-23T12:12:39.292Z,21.01
2022-09-23T12:15:17.663Z,21.02
2022-09-23T12:17:59.773Z,21.04
2022-09-23T12:20:42.275Z,21.09
2022-09-23T12:23:13.317Z,21.12
2022-09-23T12:25:57.847Z,21.12
2022-09-23T12:28:27.473Z,21.10
2022-09-23T12:30:55.409Z,21.12
2022-09-23T12:33:24.668Z,21.16
2022-09-23T12:35:53.543Z,21.19
2022-09-23T12:38:36.794Z,21.21
2022-09-23T12:41:19.634Z,21.19
2022-09-23T12:43:58.948Z,21.19
2022-09-23T12:46:27.621Z,21.20
2022-09-23T12:48:57.974Z,21.18
2022-09-23T12:51:29.175Z,21.12
2022-09-23T12:53:57.318Z,21.13
2022-09-23T12:56:36.280Z,21.13
2022-09-23T12:59:21.954Z,21.11
2022-09-23T13:01:48.876Z,21.10
2022-09-23T13:04:47.851Z,21.10
2022-09-23T13:07:16.760Z,21.15
2022-09-23T13:09:48.037Z,21.17
2022-09-23T13:12:25.280Z,21.16
2022-09-23T13:14:53.485Z,21.15
2022-09-23T13:17:33.353Z,21.12
2022-09-23T13:20:25.830Z,21.17
2022-09-23T13:22:52.583Z,21.18
2022-09-23T13:25:24.537Z,21.19
2022-09-23T13:27:55.888Z,21.19
2022-09-23T13:30:26.410Z,21.20
2022-09-23T13:33:05.224Z,21.21
2022-09-23T13:35:36.280Z,21.24
2022-09-23T13:38:20.215Z,21.23
2022-09-23T13:40:47.495Z,21.24
2022-09-23T13:43:40.264Z,21.26
2022-09-23T13:46:19.567Z,21.26
2022-09-23T13:48:47.938Z,21.26
2022-09-23T13:51:24.642Z,21.28
2022-09-23T13:53:55.355Z,21.30
2022-09-23T13:56:22.603Z,21.31
2022-09-23T13:58:49.384Z,21.34
2022-09-23T14:01:36.907Z,21.35
2022-09-23T14:04:04.120Z,21.34
2022-09-23T14:06:31.125Z,21.36
2022-09-23T14:08:58.241Z,21.35
2022-09-23T14:11:33.208Z,21.37
2022-09-23T14:14:00.872Z,21.37
2022-09-23T14:16:28.276Z,21.37
2022-09-23T14:18:59.525Z,21.38
2022-09-23T14:21:35.017Z,21.37
2022-09-23T14:24:14.927Z,21.35
2022-09-23T14:26:43.013Z,21.38
2022-09-23T14:29:23.949Z,21.39
2022-09-23T14:31:59.911Z,21.38
2022-09-23T14:34:46.677Z,21.39
2022-09-23T14:37:42.689Z,21.38
2022-09-23T14:40:13.170Z,21.38
2022-09-23T14:43:01.799Z,21.37
2022-09-23T14:45:31.765Z,21.38
2022-09-23T14:48:14.696Z,21.37
2022-09-23T14:50:47.567Z,21.38
2022-09-23T14:53:19.029Z,21.38
2022-09-23T14:55:52.760Z,21.37
2022-09-23T14:58:22.673Z,21.35
2022-09-23T15:00:54.303Z,21.34
2022-09-23T15:03:21.274Z,21.33
2022-09-23T15:05:49.049Z,21.34
2022-09-23T15:08:21.328Z,21.32
2022-09-23T15:10:48.085Z,21.31
2022-09-23T15:13:20.694Z,21.30
2022-09-23T15:15:47.793Z,21.29
2022-09-23T15:18:18.821Z,21.27
2022-09-23T15:20:52.251Z,21.24
2022-09-23T15:23:35.775Z,21.21
2022-09-23T15:26:24.346Z,21.18
2022-09-23T15:28:53.685Z,21.17
2022-09-23T15:31:21.323Z,21.15
2022-09-23T15:33:48.246Z,21.12
2022-09-23T15:36:19.218Z,21.09
2022-09-23T15:38:46.234Z,21.07
2022-09-23T15:41:14.348Z,21.06
2022-09-23T15:43:44.592Z,21.05
2022-09-23T15:46:20.747Z,21.05
2022-09-23T15:49:00.185Z,21.02
2022-09-23T15:51:27.638Z,21.01
2022-09-23T15:53:56.412Z,20.96
2022-09-23T15:56:23.765Z,20.93
2022-09-23T15:58:50.622Z,20.91
2022-09-23T16:01:21.131Z,20.87
2022-09-23T16:03:48.019Z,20.85
2022-09-23T16:06:15.495Z,20.82
2022-09-23T16:08:42.588Z,20.77
2022-09-23T16:11:19.617Z,20.74
2022-09-23T16:13:46.751Z,20.71
2022-09-23T16:16:13.677Z,20.65
2022-09-23T16:18:42.423Z,20.61
2022-09-23T16:21:17.660Z,20.58
2022-09-23T16:23:47.468Z,20.53
2022-09-23T16:26:24.372Z,20.51
2022-09-23T16:28:53.076Z,20.48
2022-09-23T16:33:48.298Z,20.38
2022-09-23T16:36:28.984Z,20.34
2022-09-23T16:38:56.087Z,20.30
2022-09-23T16:41:23.836Z,20.25
2022-09-23T16:43:51.373Z,20.21
2022-09-23T16:46:18.566Z,20.15
2022-09-23T16:48:51.422Z,20.11
2022-09-23T16:51:23.952Z,20.02
2022-09-23T16:53:51.523Z,19.95
2022-09-23T16:56:23.035Z,19.91
2022-09-23T16:58:53.036Z,19.88
2022-09-23T17:01:59.674Z,19.83
2022-09-23T17:04:27.755Z,19.78
2022-09-23T17:06:54.964Z,19.72
2022-09-23T17:09:24.658Z,19.69
2022-09-23T17:11:56.377Z,19.63
2022-09-23T17:14:23.177Z,19.58
2022-09-23T17:16:50.094Z,19.54
2022-09-23T17:19:17.195Z,19.49
2022-09-23T17:21:44.069Z,19.45
2022-09-23T17:24:10.935Z,19.38
2022-09-23T17:26:38.247Z,19.33
2022-09-23T17:29:05.609Z,19.27
2022-09-23T17:31:32.502Z,19.21
2022-09-23T17:33:59.667Z,19.16
2022-09-23T17:36:28.251Z,19.10
2022-09-23T17:38:55.024Z,19.03
2022-09-23T17:41:22.125Z,18.98
2022-09-23T17:43:54.455Z,18.93
2022-09-23T17:46:21.229Z,18.88
2022-09-23T17:48:48.685Z,18.81
2022-09-23T17:51:17.623Z,18.78
2022-09-23T17:53:45.379Z,18.72
2022-09-23T17:56:25.872Z,18.67
2022-09-23T17:58:53.541Z,18.60
2022-09-23T18:01:22.426Z,18.55
2022-09-23T18:04:02.300Z,18.50
2022-09-23T18:06:33.496Z,18.44
2022-09-23T18:09:06.730Z,18.37
2022-09-23T18:11:44.343Z,18.31
2022-09-23T18:14:19.149Z,18.27
2022-09-23T18:16:47.170Z,18.23
2022-09-23T18:19:18.673Z,18.17
2022-09-23T18:21:50.533Z,18.08
2022-09-23T18:24:34.004Z,18.03
2022-09-23T18:27:01.525Z,17.98
2022-09-23T18:29:28.786Z,17.97
2022-09-23T18:31:55.783Z,17.88
2022-09-23T18:34:23.590Z,17.86
2022-09-23T18:36:50.865Z,17.82
2022-09-23T18:39:17.852Z,17.76
2022-09-23T18:41:44.617Z,17.69
2022-09-23T18:44:11.763Z,17.60
2022-09-23T18:46:38.615Z,17.56
2022-09-23T18:49:24.020Z,17.53
2022-09-23T18:51:53.680Z,17.52
2022-09-23T18:54:20.610Z,17.44
2022-09-23T18:56:47.468Z,17.36
2022-09-23T18:59:17.588Z,17.38
2022-09-23T19:01:45.966Z,17.34
2022-09-23T19:04:14.036Z,17.29
2022-09-23T19:06:41.171Z,17.16
2022-09-23T19:09:08.262Z,17.18
2022-09-23T19:11:36.327Z,17.14
2022-09-23T19:14:04.953Z,17.10
2022-09-23T19:16:31.950Z,17.04
2022-09-23T19:19:02.157Z,16.99
2022-09-23T19:21:29.403Z,16.96
2022-09-23T19:23:57.904Z,16.87
2022-09-23T19:26:26.818Z,16.86
2022-09-23T19:28:55.279Z,16.87
2022-09-23T19:31:24.222Z,16.83
2022-09-23T19:33:58.881Z,16.74
2022-09-23T19:36:30.870Z,16.71
2022-09-23T19:38:59.104Z,16.68
2022-09-23T19:41:28.117Z,16.60
2022-09-23T19:43:55.217Z,16.54
2022-09-23T19:46:22.398Z,16.46
2022-09-23T19:48:49.620Z,16.41
2022-09-23T19:51:22.593Z,16.39
2022-09-23T19:53:49.356Z,16.41
2022-09-23T19:56:17.928Z,16.38
2022-09-23T19:58:47.313Z,16.30
2022-09-23T20:01:17.649Z,16.29
2022-09-23T20:03:45.254Z,16.24
2022-09-23T20:06:12.049Z,16.21
2022-09-23T20:08:39.291Z,16.16
2022-09-23T20:11:22.639Z,16.11
2022-09-23T20:13:58.420Z,16.08
2022-09-23T20:16:25.710Z,16.04
2022-09-23T20:18:52.640Z,15.99
2022-09-23T20:21:19.483Z,15.97
2022-09-23T20:23:46.688Z,15.92
2022-09-23T20:26:32.088Z,15.84
2022-09-23T20:29:02.359Z,15.82
2022-09-23T20:31:29.353Z,15.80
2022-09-23T20:33:58.529Z,15.75
2022-09-23T20:36:26.339Z,15.72
2022-09-23T20:38:57.147Z,15.66
2022-09-23T20:41:24.019Z,15.63
2022-09-23T20:43:54.767Z,15.59
2022-09-23T20:46:24.421Z,15.55
2022-09-23T20:48:51.415Z,15.53
2022-09-23T20:51:18.945Z,15.47
2022-09-23T20:53:49.168Z,15.47
2022-09-23T20:56:16.544Z,15.41
2022-09-23T20:58:44.570Z,15.37
2022-09-23T21:01:11.605Z,15.32
2022-09-23T21:03:39.906Z,15.31
2022-09-23T21:06:08.005Z,15.25
2022-09-23T21:08:35.463Z,15.20
2022-09-23T21:11:06.132Z,15.12
2022-09-23T21:13:33.620Z,15.12
2022-09-23T21:16:08.983Z,15.12
2022-09-23T21:18:37.530Z,15.05
2022-09-23T21:21:05.443Z,15.06
2022-09-23T21:23:34.166Z,15.00
2022-09-23T21:26:06.622Z,15.00
2022-09-23T21:28:38.236Z,14.94
2022-09-23T21:31:10.145Z,14.88
2022-09-23T21:33:37.531Z,14.89
2022-09-23T21:36:05.779Z,14.81
2022-09-23T21:38:36.632Z,14.79
2022-09-23T21:41:05.780Z,14.75
2022-09-23T21:43:33.981Z,14.74
2022-09-23T21:46:03.360Z,14.71
2022-09-23T21:48:31.003Z,14.64
2022-09-23T21:50:59.120Z,14.67
2022-09-23T21:53:26.765Z,14.61
2022-09-23T21:55:54.132Z,14.57
2022-09-23T21:58:22.587Z,14.59
2022-09-23T22:00:49.657Z,14.51
2022-09-23T22:03:16.587Z,14.42
2022-09-23T22:05:44.067Z,14.42
2022-09-23T22:08:11.195Z,14.38
2022-09-23T22:10:38.004Z,14.39
2022-09-23T22:13:10.454Z,14.37
2022-09-23T22:15:39.728Z,14.33
2022-09-23T22:18:06.593Z,14.30
2022-09-23T22:20:33.927Z,14.28
2022-09-23T22:23:00.976Z,14.24
2022-09-23T22:25:28.706Z,14.22
2022-09-23T22:28:13.719Z,14.19
2022-09-23T22:30:59.429Z,14.14
2022-09-23T22:33:26.270Z,14.15
2022-09-23T22:36:01.517Z,14.09
2022-09-23T22:38:28.328Z,14.04
2022-09-23T22:40:55.564Z,14.05
2022-09-23T22:43:22.462Z,14.05
2022-09-23T22:45:50.850Z,14.02
2022-09-23T22:48:19.235Z,14.00
2022-09-23T22:50:46.209Z,13.96
2022-09-23T22:53:13.973Z,13.97
2022-09-23T22:55:42.126Z,13.92
2022-09-23T22:58:30.702Z,13.91
2022-09-23T23:00:57.228Z,13.90
2022-09-23T23:03:26.646Z,13.87
2022-09-23T23:05:57.547Z,13.84
2022-09-23T23:08:24.621Z,13.80
2022-09-23T23:10:51.425Z,13.76
2022-09-23T23:13:18.193Z,13.73
2022-09-23T23:15:45.282Z,13.74
2022-09-23T23:18:12.889Z,13.73
2022-09-23T23:20:39.714Z,13.68
2022-09-23T23:23:07.125Z,13.64
2022-09-23T23:25:34.141Z,13.61
2022-09-23T23:28:01.074Z,13.63
2022-09-23T23:30:28.107Z,13.62
2022-09-23T23:32:54.951Z,13.59
2022-09-23T23:35:21.710Z,13.57
2022-09-23T23:37:48.795Z,13.54
2022-09-23T23:40:15.797Z,13.54
2022-09-23T23:42:42.752Z,13.49
2022-09-23T23:45:09.894Z,13.48
2022-09-23T23:47:36.653Z,13.43
2022-09-23T23:50:04.488Z,13.40
2022-09-23T23:52:31.585Z,13.42
2022-09-23T23:54:58.357Z,13.34
2022-09-23T23:57:25.228Z,13.34
2022-09-23T23:59:52.289Z,13.31
